sensor_id;sensor_type;location;lat;lon;timestamp;pressure;altitude;pressure_sealevel;temperature;humidity
72685;BME280;61365;52.162;4.500;2023-07-29T00:01:15;100664.75;;;19.57;75.21
72685;BME280;61365;52.162;4.500;2023-07-29T00:03:42;100654.78;;;19.62;75.10
72685;BME280;61365;52.162;4.500;2023-07-29T00:06:09;100650.13;;;19.67;74.57
72685;BME280;61365;52.162;4.500;2023-07-29T00:08:35;100650.69;;;19.75;74.42
72685;BME280;61365;52.162;4.500;2023-07-29T00:11:01;100647.81;;;19.80;73.33
72685;BME280;61365;52.162;4.500;2023-07-29T00:13:27;100646.97;;;19.79;73.02
72685;BME280;61365;52.162;4.500;2023-07-29T00:15:54;100644.81;;;19.67;73.31
72685;BME280;61365;52.162;4.500;2023-07-29T00:18:22;100639.38;;;19.70;74.34
72685;BME280;61365;52.162;4.500;2023-07-29T00:20:49;100646.69;;;19.86;73.72
72685;BME280;61365;52.162;4.500;2023-07-29T00:23:17;100644.91;;;19.86;73.23
72685;BME280;61365;52.162;4.500;2023-07-29T00:25:44;100640.69;;;19.80;73.32
72685;BME280;61365;52.162;4.500;2023-07-29T00:28:11;100644.69;;;19.70;72.62
72685;BME280;61365;52.162;4.500;2023-07-29T00:30:38;100636.94;;;19.64;72.74
72685;BME280;61365;52.162;4.500;2023-07-29T00:33:04;100643.44;;;19.57;72.26
72685;BME280;61365;52.162;4.500;2023-07-29T00:35:30;100639.06;;;19.56;72.86
72685;BME280;61365;52.162;4.500;2023-07-29T00:37:56;100641.88;;;19.53;72.44
72685;BME280;61365;52.162;4.500;2023-07-29T00:40:22;100642.56;;;19.35;73.55
72685;BME280;61365;52.162;4.500;2023-07-29T00:42:49;100637.03;;;19.40;73.13
72685;BME280;61365;52.162;4.500;2023-07-29T00:45:16;100640.16;;;19.29;73.47
72685;BME280;61365;52.162;4.500;2023-07-29T00:47:42;100642.09;;;19.26;73.62
72685;BME280;61365;52.162;4.500;2023-07-29T00:50:09;100639.16;;;19.10;73.72
72685;BME280;61365;52.162;4.500;2023-07-29T00:52:37;100639.59;;;19.21;74.01
72685;BME280;61365;52.162;4.500;2023-07-29T00:55:04;100629.75;;;19.23;74.06
72685;BME280;61365;52.162;4.500;2023-07-29T00:57:31;100631.69;;;19.19;73.81
72685;BME280;61365;52.162;4.500;2023-07-29T00:59:59;100629.06;;;19.18;74.00
72685;BME280;61365;52.162;4.500;2023-07-29T01:02:26;100629.72;;;19.25;73.53
72685;BME280;61365;52.162;4.500;2023-07-29T01:04:55;100623.94;;;19.13;73.39
72685;BME280;61365;52.162;4.500;2023-07-29T01:07:26;100621.28;;;19.13;73.08
72685;BME280;61365;52.162;4.500;2023-07-29T01:15:49;100627.22;;;18.98;72.81
72685;BME280;61365;52.162;4.500;2023-07-29T01:18:26;100622.00;;;18.95;73.00
72685;BME280;61365;52.162;4.500;2023-07-29T01:20:59;100618.06;;;18.81;72.93
72685;BME280;61365;52.162;4.500;2023-07-29T01:23:32;100624.63;;;18.72;73.34
72685;BME280;61365;52.162;4.500;2023-07-29T01:26:00;100611.94;;;18.79;73.83
72685;BME280;61365;52.162;4.500;2023-07-29T01:28:27;100623.47;;;18.80;73.87
72685;BME280;61365;52.162;4.500;2023-07-29T01:31:02;100604.66;;;18.84;73.29
72685;BME280;61365;52.162;4.500;2023-07-29T01:33:45;100621.59;;;18.82;73.84
72685;BME280;61365;52.162;4.500;2023-07-29T01:36:20;100618.25;;;18.76;74.32
72685;BME280;61365;52.162;4.500;2023-07-29T01:38:48;100609.72;;;18.68;74.74
72685;BME280;61365;52.162;4.500;2023-07-29T01:41:16;100612.38;;;18.68;75.04
72685;BME280;61365;52.162;4.500;2023-07-29T01:43:44;100614.25;;;18.66;74.90
72685;BME280;61365;52.162;4.500;2023-07-29T01:46:14;100611.34;;;18.49;75.71
72685;BME280;61365;52.162;4.500;2023-07-29T01:48:41;100605.22;;;18.46;76.29
72685;BME280;61365;52.162;4.500;2023-07-29T01:51:08;100604.28;;;18.48;76.18
72685;BME280;61365;52.162;4.500;2023-07-29T01:53:37;100600.91;;;18.44;76.65
72685;BME280;61365;52.162;4.500;2023-07-29T01:56:03;100601.00;;;18.41;76.55
72685;BME280;61365;52.162;4.500;2023-07-29T01:58:29;100599.50;;;18.34;77.03
72685;BME280;61365;52.162;4.500;2023-07-29T02:00:55;100597.84;;;18.31;77.20
72685;BME280;61365;52.162;4.500;2023-07-29T02:03:21;100594.28;;;18.30;77.55
72685;BME280;61365;52.162;4.500;2023-07-29T02:05:48;100600.41;;;18.33;77.74
72685;BME280;61365;52.162;4.500;2023-07-29T02:08:14;100601.59;;;18.25;78.22
72685;BME280;61365;52.162;4.500;2023-07-29T02:10:40;100599.09;;;18.21;78.54
72685;BME280;61365;52.162;4.500;2023-07-29T02:13:08;100595.50;;;18.22;78.58
72685;BME280;61365;52.162;4.500;2023-07-29T02:15:34;100596.38;;;18.22;78.91
72685;BME280;61365;52.162;4.500;2023-07-29T02:18:00;100591.09;;;18.22;78.84
72685;BME280;61365;52.162;4.500;2023-07-29T02:20:27;100588.56;;;18.18;79.30
72685;BME280;61365;52.162;4.500;2023-07-29T02:22:53;100582.41;;;18.17;79.38
72685;BME280;61365;52.162;4.500;2023-07-29T02:25:20;100591.41;;;18.13;79.47
72685;BME280;61365;52.162;4.500;2023-07-29T02:27:46;100584.44;;;18.10;79.55
72685;BME280;61365;52.162;4.500;2023-07-29T02:30:12;100583.50;;;18.11;79.73
72685;BME280;61365;52.162;4.500;2023-07-29T02:32:38;100578.31;;;18.08;80.14
72685;BME280;61365;52.162;4.500;2023-07-29T02:35:04;100584.44;;;18.10;80.28
72685;BME280;61365;52.162;4.500;2023-07-29T02:37:31;100579.06;;;18.12;79.69
72685;BME280;61365;52.162;4.500;2023-07-29T02:39:58;100576.75;;;18.03;80.22
72685;BME280;61365;52.162;4.500;2023-07-29T02:42:24;100566.91;;;18.05;80.57
72685;BME280;61365;52.162;4.500;2023-07-29T02:44:50;100566.97;;;18.03;80.70
72685;BME280;61365;52.162;4.500;2023-07-29T02:47:16;100560.94;;;17.98;80.83
72685;BME280;61365;52.162;4.500;2023-07-29T02:49:42;100557.34;;;18.00;80.60
72685;BME280;61365;52.162;4.500;2023-07-29T02:52:08;100561.69;;;18.03;80.90
72685;BME280;61365;52.162;4.500;2023-07-29T02:54:34;100558.09;;;18.04;80.88
72685;BME280;61365;52.162;4.500;2023-07-29T02:57:00;100557.34;;;18.00;81.20
72685;BME280;61365;52.162;4.500;2023-07-29T02:59:26;100550.31;;;17.99;81.36
72685;BME280;61365;52.162;4.500;2023-07-29T03:01:53;100555.63;;;17.99;81.21
72685;BME280;61365;52.162;4.500;2023-07-29T03:04:19;100554.69;;;18.00;80.83
72685;BME280;61365;52.162;4.500;2023-07-29T03:06:45;100561.78;;;18.00;81.11
72685;BME280;61365;52.162;4.500;2023-07-29T03:09:13;100562.75;;;17.97;81.11
72685;BME280;61365;52.162;4.500;2023-07-29T03:11:39;100554.81;;;17.96;81.32
72685;BME280;61365;52.162;4.500;2023-07-29T03:14:05;100554.78;;;17.97;81.44
72685;BME280;61365;52.162;4.500;2023-07-29T03:16:31;100559.13;;;18.00;81.36
72685;BME280;61365;52.162;4.500;2023-07-29T03:18:57;100559.88;;;18.04;80.77
72685;BME280;61365;52.162;4.500;2023-07-29T03:21:25;100562.31;;;18.10;80.85
72685;BME280;61365;52.162;4.500;2023-07-29T03:23:52;100573.75;;;18.12;80.75
72685;BME280;61365;52.162;4.500;2023-07-29T03:26:18;100578.13;;;18.13;80.76
72685;BME280;61365;52.162;4.500;2023-07-29T03:28:44;100576.34;;;18.13;81.12
72685;BME280;61365;52.162;4.500;2023-07-29T03:31:10;100572.72;;;18.16;80.98
72685;BME280;61365;52.162;4.500;2023-07-29T03:33:36;100568.22;;;18.18;81.01
72685;BME280;61365;52.162;4.500;2023-07-29T03:36:03;100574.34;;;18.20;80.90
72685;BME280;61365;52.162;4.500;2023-07-29T03:38:29;100564.84;;;18.13;81.02
72685;BME280;61365;52.162;4.500;2023-07-29T03:40:56;100565.66;;;18.15;81.26
72685;BME280;61365;52.162;4.500;2023-07-29T03:43:22;100568.03;;;18.23;81.10
72685;BME280;61365;52.162;4.500;2023-07-29T03:45:48;100565.13;;;18.05;81.64
72685;BME280;61365;52.162;4.500;2023-07-29T03:48:14;100579.81;;;18.15;81.31
72685;BME280;61365;52.162;4.500;2023-07-29T03:50:40;100574.84;;;18.06;81.81
72685;BME280;61365;52.162;4.500;2023-07-29T03:53:07;100577.28;;;18.12;81.66
72685;BME280;61365;52.162;4.500;2023-07-29T03:55:35;100575.38;;;18.16;81.40
72685;BME280;61365;52.162;4.500;2023-07-29T03:58:01;100576.00;;;18.23;81.68
72685;BME280;61365;52.162;4.500;2023-07-29T04:00:27;100571.44;;;18.26;81.71
72685;BME280;61365;52.162;4.500;2023-07-29T04:02:53;100569.34;;;18.35;80.99
72685;BME280;61365;52.162;4.500;2023-07-29T04:05:19;100572.53;;;18.44;81.19
72685;BME280;61365;52.162;4.500;2023-07-29T04:07:46;100570.97;;;18.39;80.74
72685;BME280;61365;52.162;4.500;2023-07-29T04:10:12;100568.44;;;18.36;81.14
72685;BME280;61365;52.162;4.500;2023-07-29T04:12:39;100574.16;;;18.49;80.79
72685;BME280;61365;52.162;4.500;2023-07-29T04:15:05;100567.34;;;18.65;80.08
72685;BME280;61365;52.162;4.500;2023-07-29T04:17:32;100560.13;;;18.67;79.86
72685;BME280;61365;52.162;4.500;2023-07-29T04:19:58;100552.16;;;18.67;79.42
72685;BME280;61365;52.162;4.500;2023-07-29T04:22:24;100571.03;;;18.61;79.97
72685;BME280;61365;52.162;4.500;2023-07-29T04:24:50;100561.63;;;18.74;79.41
72685;BME280;61365;52.162;4.500;2023-07-29T04:27:16;100566.50;;;18.85;79.40
72685;BME280;61365;52.162;4.500;2023-07-29T04:29:42;100569.97;;;18.87;78.92
72685;BME280;61365;52.162;4.500;2023-07-29T04:32:08;100563.28;;;19.01;78.59
72685;BME280;61365;52.162;4.500;2023-07-29T04:34:34;100569.56;;;18.98;78.41
72685;BME280;61365;52.162;4.500;2023-07-29T04:37:00;100577.25;;;19.06;78.57
72685;BME280;61365;52.162;4.500;2023-07-29T04:39:27;100580.72;;;19.08;78.38
72685;BME280;61365;52.162;4.500;2023-07-29T04:41:53;100570.81;;;19.12;77.81
72685;BME280;61365;52.162;4.500;2023-07-29T04:44:19;100585.97;;;19.10;78.13
72685;BME280;61365;52.162;4.500;2023-07-29T04:46:45;100577.59;;;19.19;77.73
72685;BME280;61365;52.162;4.500;2023-07-29T04:49:11;100579.34;;;19.20;77.67
72685;BME280;61365;52.162;4.500;2023-07-29T04:51:37;100571.09;;;19.26;77.75
72685;BME280;61365;52.162;4.500;2023-07-29T04:54:03;100572.63;;;19.32;76.96
72685;BME280;61365;52.162;4.500;2023-07-29T04:56:30;100573.53;;;19.32;77.38
72685;BME280;61365;52.162;4.500;2023-07-29T04:58:56;100577.03;;;19.33;77.55
72685;BME280;61365;52.162;4.500;2023-07-29T05:01:22;100576.84;;;19.38;77.12
72685;BME280;61365;52.162;4.500;2023-07-29T05:03:48;100579.28;;;19.22;77.65
72685;BME280;61365;52.162;4.500;2023-07-29T05:06:15;100584.06;;;19.13;78.32
72685;BME280;61365;52.162;4.500;2023-07-29T05:08:41;100578.47;;;19.19;78.44
72685;BME280;61365;52.162;4.500;2023-07-29T05:11:07;100580.25;;;19.19;78.66
72685;BME280;61365;52.162;4.500;2023-07-29T05:13:33;100566.13;;;19.18;78.75
72685;BME280;61365;52.162;4.500;2023-07-29T05:15:59;100578.41;;;19.21;78.40
72685;BME280;61365;52.162;4.500;2023-07-29T05:18:25;100575.81;;;19.19;78.83
72685;BME280;61365;52.162;4.500;2023-07-29T05:20:51;100573.84;;;19.25;78.66
72685;BME280;61365;52.162;4.500;2023-07-29T05:23:17;100568.03;;;19.15;78.80
72685;BME280;61365;52.162;4.500;2023-07-29T05:25:44;100569.63;;;19.19;78.42
72685;BME280;61365;52.162;4.500;2023-07-29T05:28:10;100566.59;;;19.28;78.19
72685;BME280;61365;52.162;4.500;2023-07-29T05:30:36;100561.88;;;19.35;78.58
72685;BME280;61365;52.162;4.500;2023-07-29T05:33:05;100569.69;;;19.40;77.64
72685;BME280;61365;52.162;4.500;2023-07-29T05:35:34;100565.63;;;19.52;77.82
72685;BME280;61365;52.162;4.500;2023-07-29T05:38:00;100571.53;;;19.79;76.99
72685;BME280;61365;52.162;4.500;2023-07-29T05:40:26;100575.63;;;19.88;75.99
72685;BME280;61365;52.162;4.500;2023-07-29T05:42:52;100566.47;;;19.73;76.66
72685;BME280;61365;52.162;4.500;2023-07-29T05:45:19;100565.41;;;19.77;77.09
72685;BME280;61365;52.162;4.500;2023-07-29T05:47:45;100564.84;;;19.91;76.21
72685;BME280;61365;52.162;4.500;2023-07-29T05:50:11;100559.88;;;19.81;75.96
72685;BME280;61365;52.162;4.500;2023-07-29T05:52:37;100567.88;;;19.81;76.69
72685;BME280;61365;52.162;4.500;2023-07-29T05:55:03;100565.41;;;19.77;76.28
72685;BME280;61365;52.162;4.500;2023-07-29T05:57:30;100570.88;;;19.74;76.48
72685;BME280;61365;52.162;4.500;2023-07-29T05:59:56;100581.00;;;19.65;76.92
72685;BME280;61365;52.162;4.500;2023-07-29T06:02:22;100578.34;;;19.65;77.11
72685;BME280;61365;52.162;4.500;2023-07-29T06:04:48;100575.94;;;19.59;77.67
72685;BME280;61365;52.162;4.500;2023-07-29T06:07:14;100582.88;;;19.63;76.74
72685;BME280;61365;52.162;4.500;2023-07-29T06:09:40;100587.06;;;19.69;77.05
72685;BME280;61365;52.162;4.500;2023-07-29T06:12:07;100576.88;;;19.79;76.51
72685;BME280;61365;52.162;4.500;2023-07-29T06:14:33;100584.28;;;19.93;75.86
72685;BME280;61365;52.162;4.500;2023-07-29T06:17:01;100585.13;;;19.93;75.56
72685;BME280;61365;52.162;4.500;2023-07-29T06:19:27;100576.53;;;19.87;76.56
72685;BME280;61365;52.162;4.500;2023-07-29T06:21:55;100580.06;;;19.87;76.84
72685;BME280;61365;52.162;4.500;2023-07-29T06:24:21;100585.94;;;19.95;76.48
72685;BME280;61365;52.162;4.500;2023-07-29T06:26:47;100588.31;;;19.81;76.57
72685;BME280;61365;52.162;4.500;2023-07-29T06:29:13;100586.00;;;19.94;76.51
72685;BME280;61365;52.162;4.500;2023-07-29T06:31:39;100587.59;;;19.98;76.67
72685;BME280;61365;52.162;4.500;2023-07-29T06:34:06;100588.88;;;19.89;76.90
72685;BME280;61365;52.162;4.500;2023-07-29T06:36:32;100586.72;;;19.98;76.26
72685;BME280;61365;52.162;4.500;2023-07-29T06:38:58;100589.34;;;20.18;75.39
72685;BME280;61365;52.162;4.500;2023-07-29T06:41:24;100593.78;;;20.38;74.76
72685;BME280;61365;52.162;4.500;2023-07-29T06:43:50;100585.72;;;20.40;74.82
72685;BME280;61365;52.162;4.500;2023-07-29T06:46:16;100590.75;;;20.46;74.99
72685;BME280;61365;52.162;4.500;2023-07-29T06:48:43;100584.19;;;20.34;74.86
72685;BME280;61365;52.162;4.500;2023-07-29T06:51:09;100589.81;;;20.47;74.90
72685;BME280;61365;52.162;4.500;2023-07-29T06:53:35;100585.41;;;20.46;75.07
72685;BME280;61365;52.162;4.500;2023-07-29T06:56:01;100583.66;;;20.66;75.83
72685;BME280;61365;52.162;4.500;2023-07-29T06:58:27;100578.41;;;21.38;73.20
72685;BME280;61365;52.162;4.500;2023-07-29T07:00:53;100585.84;;;21.49;72.33
72685;BME280;61365;52.162;4.500;2023-07-29T07:03:20;100585.63;;;21.36;71.59
72685;BME280;61365;52.162;4.500;2023-07-29T07:05:46;100587.25;;;20.84;72.84
72685;BME280;61365;52.162;4.500;2023-07-29T07:08:12;100590.00;;;20.82;73.96
72685;BME280;61365;52.162;4.500;2023-07-29T07:10:38;100584.97;;;21.13;72.04
72685;BME280;61365;52.162;4.500;2023-07-29T07:13:04;100596.41;;;20.97;73.15
72685;BME280;61365;52.162;4.500;2023-07-29T07:15:30;100591.59;;;21.58;71.15
72685;BME280;61365;52.162;4.500;2023-07-29T07:17:57;100586.97;;;22.31;67.38
72685;BME280;61365;52.162;4.500;2023-07-29T07:20:23;100589.19;;;22.23;66.96
72685;BME280;61365;52.162;4.500;2023-07-29T07:22:49;100591.78;;;22.40;65.75
72685;BME280;61365;52.162;4.500;2023-07-29T07:25:16;100597.88;;;22.44;66.72
72685;BME280;61365;52.162;4.500;2023-07-29T07:27:42;100591.31;;;22.98;64.44
72685;BME280;61365;52.162;4.500;2023-07-29T07:30:08;100594.56;;;24.10;60.70
72685;BME280;61365;52.162;4.500;2023-07-29T07:32:34;100585.91;;;24.63;57.86
72685;BME280;61365;52.162;4.500;2023-07-29T07:35:01;100593.56;;;23.97;59.41
72685;BME280;61365;52.162;4.500;2023-07-29T07:37:27;100602.00;;;23.30;61.79
72685;BME280;61365;52.162;4.500;2023-07-29T07:39:53;100602.63;;;22.71;61.87
72685;BME280;61365;52.162;4.500;2023-07-29T07:42:19;100610.91;;;22.50;62.01
72685;BME280;61365;52.162;4.500;2023-07-29T07:44:46;100600.53;;;22.10;63.24
72685;BME280;61365;52.162;4.500;2023-07-29T07:47:12;100608.88;;;22.04;63.28
72685;BME280;61365;52.162;4.500;2023-07-29T07:49:38;100611.19;;;21.94;63.68
72685;BME280;61365;52.162;4.500;2023-07-29T07:52:07;100615.53;;;22.13;64.18
72685;BME280;61365;52.162;4.500;2023-07-29T07:54:36;100615.25;;;21.84;65.06
72685;BME280;61365;52.162;4.500;2023-07-29T07:57:03;100614.56;;;21.80;65.35
72685;BME280;61365;52.162;4.500;2023-07-29T07:59:29;100614.47;;;21.82;65.58
72685;BME280;61365;52.162;4.500;2023-07-29T08:01:55;100616.38;;;21.80;65.84
72685;BME280;61365;52.162;4.500;2023-07-29T08:04:21;100618.88;;;21.83;66.06
72685;BME280;61365;52.162;4.500;2023-07-29T08:06:48;100624.19;;;22.00;64.96
72685;BME280;61365;52.162;4.500;2023-07-29T08:09:14;100623.25;;;22.01;65.58
72685;BME280;61365;52.162;4.500;2023-07-29T08:11:40;100626.88;;;22.52;64.33
72685;BME280;61365;52.162;4.500;2023-07-29T08:14:06;100626.56;;;23.22;62.74
72685;BME280;61365;52.162;4.500;2023-07-29T08:16:33;100629.38;;;22.87;62.29
72685;BME280;61365;52.162;4.500;2023-07-29T08:18:59;100623.03;;;22.89;61.93
72685;BME280;61365;52.162;4.500;2023-07-29T08:21:26;100631.00;;;22.24;64.04
72685;BME280;61365;52.162;4.500;2023-07-29T08:23:52;100632.28;;;22.50;63.62
72685;BME280;61365;52.162;4.500;2023-07-29T08:26:18;100634.66;;;23.04;62.34
72685;BME280;61365;52.162;4.500;2023-07-29T08:28:45;100634.72;;;23.19;61.41
72685;BME280;61365;52.162;4.500;2023-07-29T08:31:11;100628.19;;;22.76;62.75
72685;BME280;61365;52.162;4.500;2023-07-29T08:33:37;100633.94;;;22.53;62.64
72685;BME280;61365;52.162;4.500;2023-07-29T08:36:03;100635.50;;;22.89;61.44
72685;BME280;61365;52.162;4.500;2023-07-29T08:38:29;100625.06;;;23.16;60.29
72685;BME280;61365;52.162;4.500;2023-07-29T08:41:16;100623.50;;;23.75;59.33
72685;BME280;61365;52.162;4.500;2023-07-29T08:43:50;100628.25;;;24.72;57.40
72685;BME280;61365;52.162;4.500;2023-07-29T08:46:21;100626.38;;;24.46;55.94
72685;BME280;61365;52.162;4.500;2023-07-29T08:48:48;100632.56;;;24.46;56.61
72685;BME280;61365;52.162;4.500;2023-07-29T08:51:19;100634.09;;;24.36;55.68
72685;BME280;61365;52.162;4.500;2023-07-29T08:53:47;100636.78;;;24.65;55.20
72685;BME280;61365;52.162;4.500;2023-07-29T08:56:14;100632.38;;;24.49;55.50
72685;BME280;61365;52.162;4.500;2023-07-29T08:58:41;100630.75;;;24.03;57.35
72685;BME280;61365;52.162;4.500;2023-07-29T09:01:08;100635.34;;;24.16;57.11
72685;BME280;61365;52.162;4.500;2023-07-29T09:03:42;100636.72;;;23.92;57.90
72685;BME280;61365;52.162;4.500;2023-07-29T09:06:08;100634.88;;;24.23;57.08
72685;BME280;61365;52.162;4.500;2023-07-29T09:08:34;100629.13;;;24.01;57.39
72685;BME280;61365;52.162;4.500;2023-07-29T09:11:03;100635.50;;;23.98;58.12
72685;BME280;61365;52.162;4.500;2023-07-29T09:13:29;100644.13;;;24.03;57.79
72685;BME280;61365;52.162;4.500;2023-07-29T09:15:58;100634.91;;;23.62;59.21
72685;BME280;61365;52.162;4.500;2023-07-29T09:18:25;100645.66;;;23.46;60.18
72685;BME280;61365;52.162;4.500;2023-07-29T09:20:53;100645.81;;;23.59;58.24
72685;BME280;61365;52.162;4.500;2023-07-29T09:23:19;100637.69;;;22.82;61.09
72685;BME280;61365;52.162;4.500;2023-07-29T09:25:46;100625.59;;;23.23;60.49
72685;BME280;61365;52.162;4.500;2023-07-29T09:28:15;100629.84;;;23.27;61.37
72685;BME280;61365;52.162;4.500;2023-07-29T09:30:45;100630.84;;;23.08;61.74
72685;BME280;61365;52.162;4.500;2023-07-29T09:33:12;100644.50;;;23.36;60.53
72685;BME280;61365;52.162;4.500;2023-07-29T09:35:38;100639.84;;;23.23;61.09
72685;BME280;61365;52.162;4.500;2023-07-29T09:38:05;100646.41;;;23.34;61.18
72685;BME280;61365;52.162;4.500;2023-07-29T09:40:36;100656.31;;;22.84;61.55
72685;BME280;61365;52.162;4.500;2023-07-29T09:43:03;100646.56;;;22.67;63.79
72685;BME280;61365;52.162;4.500;2023-07-29T09:45:32;100642.59;;;22.90;63.78
72685;BME280;61365;52.162;4.500;2023-07-29T09:48:00;100633.59;;;22.75;64.27
72685;BME280;61365;52.162;4.500;2023-07-29T09:50:27;100634.06;;;22.83;63.32
72685;BME280;61365;52.162;4.500;2023-07-29T09:52:56;100633.34;;;22.95;63.74
72685;BME280;61365;52.162;4.500;2023-07-29T09:55:28;100631.72;;;22.93;64.56
72685;BME280;61365;52.162;4.500;2023-07-29T09:57:58;100636.19;;;23.08;63.69
72685;BME280;61365;52.162;4.500;2023-07-29T10:00:28;100636.72;;;22.99;63.92
72685;BME280;61365;52.162;4.500;2023-07-29T10:02:55;100636.97;;;23.10;62.95
72685;BME280;61365;52.162;4.500;2023-07-29T10:05:22;100640.00;;;22.88;63.26
72685;BME280;61365;52.162;4.500;2023-07-29T10:07:51;100644.13;;;22.78;63.78
72685;BME280;61365;52.162;4.500;2023-07-29T10:10:17;100642.75;;;22.71;64.31
72685;BME280;61365;52.162;4.500;2023-07-29T10:12:44;100635.88;;;22.67;65.83
72685;BME280;61365;52.162;4.500;2023-07-29T10:15:11;100639.13;;;22.56;67.32
72685;BME280;61365;52.162;4.500;2023-07-29T10:17:46;100649.50;;;22.94;66.46
72685;BME280;61365;52.162;4.500;2023-07-29T10:20:22;100653.97;;;22.61;67.89
72685;BME280;61365;52.162;4.500;2023-07-29T10:22:49;100669.81;;;22.48;68.79
72685;BME280;61365;52.162;4.500;2023-07-29T10:25:23;100658.56;;;22.24;70.12
72685;BME280;61365;52.162;4.500;2023-07-29T10:27:55;100666.31;;;21.95;70.33
72685;BME280;61365;52.162;4.500;2023-07-29T10:30:26;100669.22;;;21.90;70.27
72685;BME280;61365;52.162;4.500;2023-07-29T10:32:54;100659.25;;;21.94;70.34
72685;BME280;61365;52.162;4.500;2023-07-29T10:35:31;100668.81;;;21.98;69.66
72685;BME280;61365;52.162;4.500;2023-07-29T10:37:59;100660.09;;;22.30;69.94
72685;BME280;61365;52.162;4.500;2023-07-29T10:40:31;100654.50;;;22.68;68.35
72685;BME280;61365;52.162;4.500;2023-07-29T10:43:10;100665.56;;;23.10;66.72
72685;BME280;61365;52.162;4.500;2023-07-29T10:45:37;100657.78;;;23.37;64.91
72685;BME280;61365;52.162;4.500;2023-07-29T10:54:00;100643.13;;;23.90;62.82
72685;BME280;61365;52.162;4.500;2023-07-29T10:56:48;100641.69;;;23.53;63.11
72685;BME280;61365;52.162;4.500;2023-07-29T11:01:56;100641.38;;;23.44;62.46
72685;BME280;61365;52.162;4.500;2023-07-29T11:04:27;100633.84;;;23.34;62.54
72685;BME280;61365;52.162;4.500;2023-07-29T11:09:42;100638.78;;;23.42;62.67
72685;BME280;61365;52.162;4.500;2023-07-29T11:12:34;100641.41;;;23.28;64.04
72685;BME280;61365;52.162;4.500;2023-07-29T11:15:00;100649.34;;;23.13;63.42
72685;BME280;61365;52.162;4.500;2023-07-29T11:17:33;100650.38;;;22.45;66.42
72685;BME280;61365;52.162;4.500;2023-07-29T11:20:00;100664.81;;;22.07;69.82
72685;BME280;61365;52.162;4.500;2023-07-29T11:22:29;100655.47;;;21.81;73.08
72685;BME280;61365;52.162;4.500;2023-07-29T11:24:55;100652.06;;;21.23;77.19
72685;BME280;61365;52.162;4.500;2023-07-29T11:27:22;100651.25;;;21.03;79.27
72685;BME280;61365;52.162;4.500;2023-07-29T11:29:48;100652.03;;;20.67;79.52
72685;BME280;61365;52.162;4.500;2023-07-29T11:32:17;100658.97;;;20.50;79.72
72685;BME280;61365;52.162;4.500;2023-07-29T11:34:43;100656.03;;;20.57;79.91
72685;BME280;61365;52.162;4.500;2023-07-29T11:37:09;100657.81;;;20.56;80.45
72685;BME280;61365;52.162;4.500;2023-07-29T11:39:40;100663.38;;;20.91;80.00
72685;BME280;61365;52.162;4.500;2023-07-29T11:42:10;100667.03;;;21.08;78.26
72685;BME280;61365;52.162;4.500;2023-07-29T11:44:37;100662.00;;;21.02;80.12
72685;BME280;61365;52.162;4.500;2023-07-29T11:47:11;100676.41;;;21.17;79.02
72685;BME280;61365;52.162;4.500;2023-07-29T11:49:38;100668.91;;;21.62;77.55
72685;BME280;61365;52.162;4.500;2023-07-29T11:52:06;100669.78;;;22.15;75.01
72685;BME280;61365;52.162;4.500;2023-07-29T11:54:37;100671.75;;;22.62;73.21
72685;BME280;61365;52.162;4.500;2023-07-29T11:57:07;100670.38;;;22.71;71.67
72685;BME280;61365;52.162;4.500;2023-07-29T11:59:35;100658.38;;;23.10;72.62
72685;BME280;61365;52.162;4.500;2023-07-29T12:02:06;100657.53;;;23.10;69.08
72685;BME280;61365;52.162;4.500;2023-07-29T12:04:37;100650.44;;;23.09;68.85
72685;BME280;61365;52.162;4.500;2023-07-29T12:07:07;100649.94;;;23.18;69.41
72685;BME280;61365;52.162;4.500;2023-07-29T12:09:34;100648.13;;;23.35;68.36
72685;BME280;61365;52.162;4.500;2023-07-29T12:12:04;100653.81;;;23.45;67.42
72685;BME280;61365;52.162;4.500;2023-07-29T12:14:32;100647.53;;;23.30;67.55
72685;BME280;61365;52.162;4.500;2023-07-29T12:17:04;100646.66;;;23.45;66.64
72685;BME280;61365;52.162;4.500;2023-07-29T12:19:35;100647.22;;;23.50;68.56
72685;BME280;61365;52.162;4.500;2023-07-29T12:22:02;100639.84;;;23.70;67.41
72685;BME280;61365;52.162;4.500;2023-07-29T12:24:30;100647.53;;;23.60;67.02
72685;BME280;61365;52.162;4.500;2023-07-29T12:26:57;100642.31;;;23.43;66.83
72685;BME280;61365;52.162;4.500;2023-07-29T12:29:24;100635.59;;;23.35;65.09
72685;BME280;61365;52.162;4.500;2023-07-29T12:31:57;100642.88;;;23.01;65.61
72685;BME280;61365;52.162;4.500;2023-07-29T12:34:25;100645.78;;;22.97;65.98
72685;BME280;61365;52.162;4.500;2023-07-29T12:36:54;100642.50;;;23.23;65.25
72685;BME280;61365;52.162;4.500;2023-07-29T12:39:29;100642.16;;;23.30;65.46
72685;BME280;61365;52.162;4.500;2023-07-29T12:41:57;100641.09;;;23.48;64.75
72685;BME280;61365;52.162;4.500;2023-07-29T12:44:27;100644.69;;;23.63;64.09
72685;BME280;61365;52.162;4.500;2023-07-29T12:46:55;100639.59;;;23.59;65.25
72685;BME280;61365;52.162;4.500;2023-07-29T12:49:22;100646.97;;;23.55;63.39
72685;BME280;61365;52.162;4.500;2023-07-29T12:51:48;100642.84;;;23.33;65.05
72685;BME280;61365;52.162;4.500;2023-07-29T12:54:14;100648.44;;;23.13;64.35
72685;BME280;61365;52.162;4.500;2023-07-29T12:56:40;100646.81;;;23.10;65.44
72685;BME280;61365;52.162;4.500;2023-07-29T12:59:06;100642.41;;;23.09;64.42
72685;BME280;61365;52.162;4.500;2023-07-29T13:01:33;100642.09;;;23.31;65.22
72685;BME280;61365;52.162;4.500;2023-07-29T13:04:00;100642.78;;;23.35;63.62
72685;BME280;61365;52.162;4.500;2023-07-29T13:06:26;100640.53;;;23.43;63.27
72685;BME280;61365;52.162;4.500;2023-07-29T13:08:52;100647.41;;;23.47;63.75